Time;durP1;ratioP1;P1;durP2;ratioP2;P2;SDS_P1;SDS_P2;PMS_P1;PMS_P2;Temp;Humidity;BMP_temperature;BMP_pressure;BME280_temperature;BME280_humidity;BME280_pressure;Samples;Min_cycle;Max_cycle;Signal;HPM_P1;HPM_P2
2022/09/24 05:01:39;;;;;;;11.55;8.40;;;11.70;99.90;;;;;;6088894;23;20978;31
2022/09/24 05:04:05;;;;;;;10.75;8.65;;;11.80;99.90;;;;;;6134117;23;19913;-77
2022/09/24 05:06:31;;;;;;;17.95;9.13;;;11.80;99.90;;;;;;6105291;23;20227;-74
2022/09/24 05:08:57;;;;;;;11.68;8.40;;;11.80;99.90;;;;;;6105937;23;20053;-76
2022/09/24 05:11:23;;;;;;;13.68;9.55;;;11.80;99.90;;;;;;6104394;23;20002;-76
2022/09/24 05:13:49;;;;;;;14.45;9.63;;;11.80;99.90;;;;;;6104503;23;20009;-76
2022/09/24 05:16:15;;;;;;;12.10;8.90;;;11.80;99.90;;;;;;6103912;23;20064;-76
2022/09/24 05:18:41;;;;;;;11.75;8.60;;;11.80;99.90;;;;;;6104317;23;20057;-75
2022/09/24 05:21:06;;;;;;;14.15;9.00;;;11.70;99.90;;;;;;6103745;23;20034;-75
2022/09/24 05:23:32;;;;;;;11.73;8.50;;;11.80;99.90;;;;;;6103662;23;20347;-75
2022/09/24 05:28:43;;;;;;;13.43;9.30;;;11.70;99.90;;;;;;6104024;23;20137;-76
2022/09/24 05:31:09;;;;;;;10.88;8.43;;;11.80;99.90;;;;;;6104077;23;19998;-76
2022/09/24 05:33:36;;;;;;;11.27;9.45;;;11.80;99.90;;;;;;6104454;23;20025;-76
2022/09/24 05:36:03;;;;;;;13.63;9.73;;;11.80;99.90;;;;;;6104084;23;20053;-76
2022/09/24 05:38:32;;;;;;;12.27;9.35;;;11.80;99.90;;;;;;6131913;23;20001;-76
2022/09/24 05:40:58;;;;;;;13.38;9.63;;;11.80;99.90;;;;;;6134485;23;20057;-76
2022/09/24 05:43:26;;;;;;;13.65;9.40;;;11.80;99.90;;;;;;6134353;23;20010;-76
2022/09/24 05:45:53;;;;;;;13.05;9.60;;;11.80;99.90;;;;;;6135693;23;20002;-75
2022/09/24 05:48:20;;;;;;;17.88;10.35;;;11.80;99.90;;;;;;6136315;23;20006;-77
2022/09/24 05:50:46;;;;;;;12.95;8.88;;;11.70;99.90;;;;;;6136042;23;20006;-77
2022/09/24 05:53:12;;;;;;;12.55;9.07;;;11.70;99.90;;;;;;6136167;23;19994;-76
2022/09/24 05:55:41;;;;;;;13.70;9.43;;;11.70;99.90;;;;;;6137806;23;20005;-76
2022/09/24 05:58:09;;;;;;;12.45;9.32;;;11.70;99.90;;;;;;6137476;23;20072;-78
2022/09/24 06:00:41;;;;;;;13.80;9.77;;;11.70;99.90;;;;;;6138114;23;20110;-78
2022/09/24 06:03:12;;;;;;;13.68;10.02;;;11.80;99.90;;;;;;6154917;23;20303;-78
2022/09/24 06:05:50;;;;;;;12.40;9.52;;;11.80;99.90;;;;;;6161244;23;20013;-78
2022/09/24 06:08:18;;;;;;;12.68;9.60;;;11.90;99.90;;;;;;6160710;23;20002;-77
2022/09/24 06:10:47;;;;;;;13.18;10.18;;;11.90;99.90;;;;;;6160735;23;20052;-76
2022/09/24 06:13:17;;;;;;;12.38;9.52;;;12.00;99.90;;;;;;6160627;23;20017;-76
2022/09/24 06:15:44;;;;;;;12.93;8.93;;;12.00;99.90;;;;;;6161064;23;20048;-77
2022/09/24 06:18:10;;;;;;;10.65;8.45;;;12.00;99.90;;;;;;6137396;23;20002;-77
2022/09/24 06:20:39;;;;;;;13.30;9.70;;;12.10;99.90;;;;;;6137922;23;20005;-77
2022/09/24 06:23:05;;;;;;;;;;;12.10;99.90;;;;;;6138096;23;20180;-76
2022/09/24 06:25:35;;;;;;;13.13;8.32;;;12.10;99.90;;;;;;6137602;23;19953;-75
2022/09/24 06:28:03;;;;;;;12.15;8.55;;;12.30;99.90;;;;;;6136980;23;20006;-76
2022/09/24 06:30:40;;;;;;;11.52;8.55;;;12.30;99.90;;;;;;6140060;23;20020;-75
2022/09/24 06:33:11;;;;;;;10.18;7.90;;;12.40;99.90;;;;;;6160331;23;20006;-76
2022/09/24 06:35:39;;;;;;;11.63;8.38;;;12.50;99.90;;;;;;6137230;23;19998;-77
2022/09/24 06:38:06;;;;;;;12.65;8.68;;;12.70;99.90;;;;;;6160030;23;20005;-75
2022/09/24 06:40:32;;;;;;;12.52;8.38;;;12.80;99.90;;;;;;6160582;23;20005;-78
2022/09/24 06:43:19;;;;;;;10.30;7.72;;;13.00;99.90;;;;;;6160859;23;20083;-78
2022/09/24 06:45:59;;;;;;;12.40;8.73;;;13.10;99.90;;;;;;6136858;23;20001;-77
2022/09/24 06:48:40;;;;;;;11.77;8.00;;;13.10;99.90;;;;;;6135494;23;20005;-77
2022/09/24 06:54:26;;;;;;;10.43;7.78;;;13.10;99.90;;;;;;6164273;23;20005;-77
2022/09/24 06:57:36;;;;;;;11.23;7.63;;;13.10;99.90;;;;;;6160761;23;20087;-81
2022/09/24 07:00:24;;;;;;;10.38;7.80;;;13.10;99.90;;;;;;6136620;23;20013;-77
2022/09/24 07:19:32;;;;;;;11.77;8.20;;;13.20;99.90;;;;;;6106506;23;20053;-79
2022/09/24 07:23:06;;;;;;;;;;;;;;;;;;;;;
2022/09/24 07:25:58;;;;;;;10.10;8.30;;;13.40;99.90;;;;;;5907530;24;20303;-77
2022/09/24 07:29:34;;;;;;;;;;;;;;;;;;;;;
2022/09/24 07:36:37;;;;;;;10.98;8.05;;;13.50;99.90;;;;;;5909026;24;20016;-78
2022/09/24 07:39:33;;;;;;;9.07;7.07;;;13.70;99.90;;;;;;5880418;24;20014;-77
2022/09/24 07:42:38;;;;;;;14.23;8.50;;;13.80;99.90;;;;;;5880377;24;20010;-78
2022/09/24 07:45:30;;;;;;;11.82;7.90;;;13.80;99.90;;;;;;5879795;24;20204;-77
2022/09/24 07:48:54;;;;;;;11.35;7.65;;;13.90;99.90;;;;;;5882337;24;20086;-76
2022/09/24 07:51:35;;;;;;;11.23;7.85;;;14.00;99.90;;;;;;5902761;24;20013;-79
2022/09/24 07:55:03;;;;;;;10.63;7.40;;;14.10;99.90;;;;;;5877238;24;20044;-78
2022/09/24 08:02:00;;;;;;;9.57;6.90;;;14.40;99.90;;;;;;5964279;24;20039;-77
2022/09/24 08:04:48;;;;;;;10.80;6.95;;;14.50;99.90;;;;;;5945392;24;20016;-79
2022/09/24 08:07:14;;;;;;;9.45;6.15;;;14.70;99.90;;;;;;5959269;24;20016;-76
2022/09/24 08:09:40;;;;;;;18.10;13.07;;;14.80;99.90;;;;;;5969038;24;20222;-77
2022/09/24 08:12:57;;;;;;;;;;;;;;;;;;;;;
2022/09/24 08:16:09;;;;;;;10.60;7.57;;;15.10;99.90;;;;;;6005692;23;20210;-78
2022/09/24 08:18:35;;;;;;;11.57;7.47;;;15.20;99.90;;;;;;6016160;23;20285;-77
2022/09/24 08:21:27;;;;;;;10.93;7.10;;;15.30;99.90;;;;;;6016070;23;20099;-79
2022/09/24 08:24:42;;;;;;;10.02;7.25;;;15.40;99.90;;;;;;6016170;23;20026;-76
2022/09/24 08:30:47;;;;;;;9.23;6.13;;;15.70;99.90;;;;;;6022523;23;20014;-79
2022/09/24 08:33:56;;;;;;;26.08;23.05;;;15.90;99.90;;;;;;6029453;23;20012;-78
2022/09/24 08:41:05;;;;;;;10.88;7.22;;;16.60;99.90;;;;;;6114611;23;20010;-79
2022/09/24 08:51:16;;;;;;;10.60;6.90;;;17.10;99.90;;;;;;6101940;23;20045;-79
2022/09/24 08:54:00;;;;;;;8.77;6.88;;;17.50;99.90;;;;;;6101880;23;20005;-79
2022/09/24 08:56:45;;;;;;;12.70;7.38;;;17.70;99.90;;;;;;6101275;23;20102;-77
2022/09/24 08:59:46;;;;;;;10.13;6.90;;;18.00;99.90;;;;;;6076837;23;20030;-79
2022/09/24 09:02:42;;;;;;;8.27;6.55;;;18.30;99.90;;;;;;6100827;23;20010;-78
2022/09/24 09:09:13;;;;;;;10.40;6.57;;;18.90;99.90;;;;;;6101252;23;20013;-78
2022/09/24 09:15:56;;;;;;;10.95;7.28;;;18.80;99.70;;;;;;6072869;23;20140;-79
2022/09/24 09:18:42;;;;;;;9.52;6.90;;;18.70;99.90;;;;;;6072305;23;20034;-80
2022/09/24 09:21:42;;;;;;;10.43;7.43;;;18.50;99.80;;;;;;6072425;23;20300;-79
2022/09/24 09:24:35;;;;;;;10.05;6.30;;;18.40;99.90;;;;;;6072999;23;20411;-79
2022/09/24 09:27:28;;;;;;;23.90;18.13;;;18.30;99.90;;;;;;6072943;23;20011;-79
2022/09/24 09:33:29;;;;;;;10.30;6.78;;;18.30;99.90;;;;;;6071930;23;20033;-79
2022/09/24 09:36:38;;;;;;;15.98;7.20;;;18.40;99.90;;;;;;6071662;23;20014;-78
2022/09/24 09:39:41;;;;;;;11.93;6.78;;;18.50;99.90;;;;;;6071427;23;20014;-79
2022/09/24 09:46:44;;;;;;;7.53;4.50;;;18.10;99.90;;;;;;6119015;23;20385;-78
2022/09/24 09:50:04;;;;;;;4.43;2.33;;;18.20;99.90;;;;;;6162288;23;20013;-78
2022/09/24 09:52:38;;;;;;;3.70;1.90;;;18.10;99.90;;;;;;6160844;23;19998;-79
2022/09/24 09:55:18;;;;;;;3.03;1.83;;;18.00;99.90;;;;;;6162793;23;20048;-77
2022/09/24 09:57:56;;;;;;;2.58;1.73;;;18.00;99.90;;;;;;6162653;23;20002;-77
2022/09/24 10:00:32;;;;;;;4.27;1.73;;;17.80;99.90;;;;;;6162226;23;20069;-78
2022/09/24 10:02:58;;;;;;;2.95;1.70;;;17.70;99.90;;;;;;6154828;23;20033;-76
2022/09/24 10:05:28;;;;;;;4.30;2.13;;;17.70;99.90;;;;;;6131655;23;20053;-78
2022/09/24 10:08:19;;;;;;;3.53;1.75;;;17.70;99.90;;;;;;6132074;23;20040;-76
2022/09/24 10:11:21;;;;;;;2.63;1.50;;;17.70;99.90;;;;;;6132323;23;19998;-78
2022/09/24 10:16:54;;;;;;;4.20;2.30;;;17.70;99.90;;;;;;6131984;23;20005;-77
2022/09/24 10:19:23;;;;;;;3.20;2.10;;;17.70;99.90;;;;;;6130712;23;20008;-77
2022/09/24 10:21:50;;;;;;;3.72;2.00;;;17.80;99.90;;;;;;6132670;23;20220;-77
2022/09/24 10:24:42;;;;;;;4.47;1.95;;;17.80;99.90;;;;;;6132675;23;20284;-79
2022/09/24 10:27:41;;;;;;;4.60;2.17;;;17.60;99.90;;;;;;6132033;23;20013;-79
2022/09/24 10:30:33;;;;;;;3.08;1.90;;;17.50;99.90;;;;;;6131706;23;20006;-79
2022/09/24 10:33:07;;;;;;;4.07;2.05;;;17.60;99.90;;;;;;6132514;23;20057;-82
2022/09/24 10:35:37;;;;;;;2.80;1.92;;;17.70;99.90;;;;;;6134631;23;20016;-77
2022/09/24 10:38:23;;;;;;;6.15;2.25;;;17.80;99.90;;;;;;6109227;23;20006;-76
2022/09/24 10:40:50;;;;;;;3.83;2.08;;;17.80;99.90;;;;;;6134576;23;20354;-78
2022/09/24 10:43:18;;;;;;;2.65;1.90;;;18.00;99.90;;;;;;6133330;23;20001;-78
2022/09/24 10:46:20;;;;;;;4.10;2.10;;;18.10;99.90;;;;;;6133667;23;20006;-77
2022/09/24 10:49:21;;;;;;;3.97;2.15;;;18.10;99.90;;;;;;6133777;23;20006;-76
2022/09/24 10:52:02;;;;;;;3.13;2.03;;;18.50;99.90;;;;;;6134452;23;20032;-77
2022/09/24 10:54:48;;;;;;;3.05;1.85;;;18.60;99.90;;;;;;6134215;23;20002;-75
2022/09/24 10:57:24;;;;;;;3.78;1.88;;;18.60;99.90;;;;;;6134645;23;20013;-76
2022/09/24 11:00:03;;;;;;;3.90;1.90;;;18.70;99.90;;;;;;6133791;23;20006;-75
2022/09/24 11:03:17;;;;;;;2.97;1.95;;;18.80;99.90;;;;;;6128544;23;20033;-77
2022/09/24 11:05:54;;;;;;;3.53;1.95;;;18.70;99.90;;;;;;6133230;23;20180;-80
2022/09/24 11:08:26;;;;;;;2.80;1.70;;;18.60;99.90;;;;;;6134539;23;20009;-76
2022/09/24 11:11:13;;;;;;;3.85;1.58;;;18.40;99.90;;;;;;6135243;23;20005;-77
2022/09/24 11:13:56;;;;;;;3.50;1.88;;;18.50;99.90;;;;;;6132830;23;20037;-81
2022/09/24 11:17:02;;;;;;;3.40;1.50;;;18.60;99.90;;;;;;6134186;23;20029;-78
2022/09/24 11:19:32;;;;;;;2.63;1.58;;;18.60;99.90;;;;;;6133499;23;20009;-79
2022/09/24 11:22:31;;;;;;;3.03;1.70;;;18.70;99.90;;;;;;6133209;23;20119;-76
2022/09/24 11:25:15;;;;;;;2.78;1.70;;;18.70;99.90;;;;;;6133013;23;20094;-75
2022/09/24 11:27:49;;;;;;;2.83;1.67;;;18.80;99.90;;;;;;6133678;23;20005;-76
2022/09/24 11:30:23;;;;;;;6.78;4.60;;;18.50;99.90;;;;;;6134254;23;19997;-76
2022/09/24 11:33:06;;;;;;;2.33;1.40;;;18.20;99.90;;;;;;6133607;23;20010;-74
2022/09/24 11:35:51;;;;;;;2.20;1.10;;;18.20;99.90;;;;;;6134120;23;20010;-74
2022/09/24 11:38:20;;;;;;;2.10;1.25;;;18.40;99.90;;;;;;6135314;23;20052;-75
2022/09/24 11:40:46;;;;;;;2.63;1.50;;;18.10;99.90;;;;;;6135455;23;20002;-75
2022/09/24 11:43:23;;;;;;;4.07;1.70;;;18.20;99.90;;;;;;6135458;23;20062;-76
2022/09/24 11:46:26;;;;;;;3.15;1.77;;;18.20;99.90;;;;;;6134741;23;20002;-75
2022/09/24 11:48:51;;;;;;;2.85;1.70;;;18.10;99.90;;;;;;6135421;23;20002;-74
2022/09/24 11:51:29;;;;;;;3.65;1.73;;;18.10;99.90;;;;;;6134481;23;20053;-75
2022/09/24 11:54:07;;;;;;;3.33;1.80;;;18.20;99.90;;;;;;6134698;23;20165;-75
2022/09/24 11:56:45;;;;;;;3.33;1.40;;;18.30;99.90;;;;;;6134449;23;20052;-77
2022/09/24 11:59:22;;;;;;;3.42;1.63;;;18.50;99.90;;;;;;6133604;23;19998;-76
2022/09/24 12:01:59;;;;;;;3.43;1.60;;;18.50;99.90;;;;;;6134882;23;20033;-74
2022/09/24 12:04:53;;;;;;;3.63;1.92;;;18.50;99.90;;;;;;6152749;23;20046;-75
2022/09/24 12:07:42;;;;;;;3.67;2.28;;;18.50;99.90;;;;;;6164432;23;20001;-77
2022/09/24 12:10:34;;;;;;;4.13;2.15;;;18.70;99.90;;;;;;6162994;23;20015;-76
2022/09/24 12:13:38;;;;;;;3.67;2.00;;;18.40;99.90;;;;;;6164634;23;20001;-75
2022/09/24 12:16:06;;;;;;;3.88;2.28;;;18.30;99.90;;;;;;6103696;23;20006;-75
2022/09/24 12:18:39;;;;;;;3.35;2.28;;;18.30;99.90;;;;;;6153644;23;20097;-77
2022/09/24 12:21:39;;;;;;;4.45;2.40;;;18.40;99.90;;;;;;6164399;23;20009;-76
2022/09/24 12:24:28;;;;;;;5.97;3.75;;;18.60;99.90;;;;;;6161318;23;20052;-74
2022/09/24 12:26:58;;;;;;;5.53;3.47;;;18.70;99.90;;;;;;6164649;23;20279;-74
2022/09/24 12:32:53;;;;;;;6.07;2.78;;;18.50;99.90;;;;;;6165010;23;20056;-76
2022/09/24 12:35:28;;;;;;;6.05;3.10;;;18.20;99.90;;;;;;6164769;23;20002;-75
2022/09/24 12:38:15;;;;;;;5.82;3.10;;;18.20;99.90;;;;;;6165128;23;20012;-76
2022/09/24 12:41:14;;;;;;;6.68;3.88;;;18.10;99.90;;;;;;6164531;23;20080;-75
2022/09/24 12:43:59;;;;;;;6.45;3.50;;;18.00;99.90;;;;;;6164140;23;20212;-76
2022/09/24 12:46:34;;;;;;;5.82;3.17;;;17.80;99.90;;;;;;6164045;23;20065;-77
2022/09/24 12:49:00;;;;;;;4.68;3.22;;;17.80;99.90;;;;;;6164291;23;20345;-77
2022/09/24 12:51:36;;;;;;;5.18;3.08;;;17.60;99.90;;;;;;6164211;23;20291;-78
2022/09/24 12:54:27;;;;;;;6.45;3.55;;;17.50;99.90;;;;;;6163295;23;20287;-75
2022/09/24 12:57:16;;;;;;;5.13;3.22;;;17.60;99.90;;;;;;6163482;23;20017;-75
2022/09/24 12:59:45;;;;;;;5.25;3.38;;;17.70;99.90;;;;;;6164139;23;20001;-75
2022/09/24 13:02:18;;;;;;;5.20;3.28;;;17.80;99.90;;;;;;6164346;23;20002;-76
2022/09/24 13:05:09;;;;;;;7.07;3.75;;;18.10;99.90;;;;;;6140995;23;20013;-73
2022/09/24 13:07:39;;;;;;;5.57;2.97;;;18.40;99.90;;;;;;6118520;23;20067;-79
2022/09/24 13:10:17;;;;;;;13.82;9.88;;;18.70;99.90;;;;;;6134767;23;20013;-75
2022/09/24 13:12:44;;;;;;;31.25;27.20;;;19.10;99.90;;;;;;6134276;23;20010;-74
2022/09/24 13:15:29;;;;;;;18.37;14.10;;;19.30;99.90;;;;;;6133667;23;20172;-74
2022/09/24 13:18:10;;;;;;;6.85;4.15;;;19.40;99.90;;;;;;6135547;23;20013;-74
2022/09/24 13:20:41;;;;;;;5.35;3.50;;;19.40;99.90;;;;;;6135943;23;20013;-73
2022/09/24 13:23:13;;;;;;;5.78;3.33;;;19.20;99.90;;;;;;6141603;23;20032;-72
2022/09/24 13:25:40;;;;;;;5.55;3.25;;;19.00;99.90;;;;;;6146756;23;19997;-79
2022/09/24 13:28:24;;;;;;;6.90;3.63;;;18.70;99.90;;;;;;6120660;23;20014;-76
2022/09/24 13:31:28;;;;;;;6.05;3.70;;;18.50;99.90;;;;;;6136157;23;20073;-73
2022/09/24 13:34:38;;;;;;;5.75;3.63;;;18.20;99.90;;;;;;6135156;23;20199;-75
2022/09/24 13:37:34;;;;;;;5.53;3.65;;;18.10;99.90;;;;;;6134782;23;20069;-73
2022/09/24 13:40:16;;;;;;;6.45;4.07;;;18.10;99.90;;;;;;6132947;23;20002;-73
2022/09/24 13:43:00;;;;;;;6.75;4.10;;;18.10;99.90;;;;;;6133825;23;20002;-76
2022/09/24 13:45:30;;;;;;;6.28;4.07;;;18.10;99.90;;;;;;6134331;23;20002;-78
2022/09/24 13:48:05;;;;;;;7.53;4.05;;;18.10;99.90;;;;;;6135271;23;20013;-74
2022/09/24 13:50:58;;;;;;;6.80;3.95;;;18.00;99.90;;;;;;6134557;23;20002;-73
2022/09/24 13:53:48;;;;;;;28.65;22.75;;;17.90;99.90;;;;;;6122348;23;20029;-74
2022/09/24 13:56:18;;;;;;;8.60;6.15;;;17.80;99.90;;;;;;6137063;23;20169;-74
2022/09/24 13:58:44;;;;;;;10.07;5.05;;;17.70;99.90;;;;;;6133823;23;20002;-74
2022/09/24 14:01:20;;;;;;;6.05;4.40;;;17.60;99.90;;;;;;6134791;23;20017;-74
2022/09/24 14:04:00;;;;;;;7.72;4.10;;;17.60;99.90;;;;;;6144859;23;20060;-75
2022/09/24 14:06:36;;;;;;;5.28;3.90;;;17.60;99.90;;;;;;6164907;23;20005;-74
2022/09/24 14:09:30;;;;;;;7.40;4.70;;;17.80;99.90;;;;;;6166852;23;20005;-76
2022/09/24 14:12:02;;;;;;;6.60;4.38;;;17.90;99.90;;;;;;6166885;23;20016;-72
2022/09/24 14:14:41;;;;;;;7.57;4.50;;;18.20;99.90;;;;;;6166348;23;20032;-75
2022/09/24 14:17:11;;;;;;;6.68;4.80;;;18.30;99.90;;;;;;6165278;23;20063;-75
2022/09/24 14:19:37;;;;;;;8.80;5.00;;;18.50;99.90;;;;;;6164918;23;20010;-74
2022/09/24 14:22:19;;;;;;;6.90;5.38;;;18.60;99.90;;;;;;6165429;23;20029;-74
2022/09/24 14:24:58;;;;;;;9.25;7.53;;;18.50;99.90;;;;;;6165165;23;20051;-75
2022/09/24 14:27:31;;;;;;;7.18;5.72;;;18.40;99.90;;;;;;6165860;23;20009;-74
2022/09/24 14:30:01;;;;;;;8.68;5.20;;;18.30;99.90;;;;;;6166500;23;20028;-73
2022/09/24 14:32:39;;;;;;;8.27;6.70;;;18.20;99.90;;;;;;6165273;23;20016;-75
2022/09/24 14:35:37;;;;;;;11.53;6.67;;;18.10;99.90;;;;;;6164047;23;20021;-74
2022/09/24 14:38:20;;;;;;;8.82;5.78;;;18.10;99.90;;;;;;6165695;23;20002;-74
2022/09/24 14:41:21;;;;;;;16.85;11.27;;;18.10;99.90;;;;;;6164947;23;20024;-74
2022/09/24 14:44:05;;;;;;;20.45;12.40;;;18.00;99.90;;;;;;6133482;23;20005;-75
2022/09/24 14:46:48;;;;;;;18.65;12.13;;;17.90;99.90;;;;;;6163608;23;20013;-75
2022/09/24 14:49:25;;;;;;;13.02;8.18;;;17.90;99.90;;;;;;6163750;23;20006;-75
2022/09/24 14:51:56;;;;;;;17.15;9.80;;;17.90;99.90;;;;;;6163744;23;20291;-75
2022/09/24 14:54:39;;;;;;;32.65;18.25;;;18.00;99.90;;;;;;6164948;23;20028;-73
2022/09/24 14:57:24;;;;;;;20.23;12.40;;;18.00;99.90;;;;;;6165103;23;20234;-74
2022/09/24 14:59:51;;;;;;;30.73;15.25;;;18.10;99.90;;;;;;6165148;23;20017;-73
2022/09/24 15:02:20;;;;;;;15.85;8.60;;;18.10;99.90;;;;;;6165014;23;20029;-75
2022/09/24 15:04:52;;;;;;;43.25;26.27;;;18.00;99.90;;;;;;6141974;23;20296;-75
2022/09/24 15:07:24;;;;;;;37.40;21.20;;;17.90;99.90;;;;;;6135126;23;20127;-75
2022/09/24 15:10:23;;;;;;;49.72;33.92;;;18.00;99.90;;;;;;6135094;23;20017;-75
2022/09/24 15:12:58;;;;;;;33.50;21.73;;;18.00;99.90;;;;;;6130841;23;20231;-75
2022/09/24 15:15:32;;;;;;;21.35;12.80;;;18.00;99.90;;;;;;6134224;23;20053;-74
2022/09/24 15:18:00;;;;;;;22.02;11.82;;;18.00;99.90;;;;;;6135505;23;20006;-76
2022/09/24 15:20:26;;;;;;;;;;;18.10;99.90;;;;;;6135486;23;20224;-75
2022/09/24 15:22:52;;;;;;;45.75;26.30;;;18.00;99.90;;;;;;6133420;23;19908;-76
2022/09/24 15:25:18;;;;;;;24.58;14.88;;;18.00;99.90;;;;;;6134006;23;19990;-77
2022/09/24 15:27:44;;;;;;;21.33;12.52;;;18.00;99.90;;;;;;6133792;23;20010;-76
2022/09/24 15:30:16;;;;;;;19.42;11.80;;;18.10;99.90;;;;;;6134374;23;20001;-77
2022/09/24 15:32:42;;;;;;;26.25;16.58;;;18.20;99.90;;;;;;6134006;23;20053;-74
2022/09/24 15:35:09;;;;;;;16.02;10.48;;;18.20;99.90;;;;;;6134374;23;20010;-77
2022/09/24 15:37:38;;;;;;;9.57;6.95;;;18.30;99.90;;;;;;6133770;23;20016;-75
2022/09/24 15:40:24;;;;;;;7.35;5.50;;;18.30;99.90;;;;;;6133977;23;20335;-75
2022/09/24 15:42:51;;;;;;;12.35;9.65;;;18.30;99.90;;;;;;6134771;23;20006;-77
2022/09/24 15:45:24;;;;;;;14.55;10.20;;;18.30;99.90;;;;;;6136820;23;20009;-74
2022/09/24 15:47:51;;;;;;;10.80;8.90;;;18.30;99.90;;;;;;6134370;23;20006;-75
2022/09/24 15:50:19;;;;;;;7.95;6.60;;;18.40;99.90;;;;;;6135150;23;20015;-77
2022/09/24 15:52:57;;;;;;;12.15;8.55;;;18.40;99.90;;;;;;6133658;23;20013;-74
2022/09/24 15:55:23;;;;;;;9.37;6.53;;;18.40;99.90;;;;;;6135008;23;20184;-74
2022/09/24 15:57:48;;;;;;;9.63;6.63;;;18.30;99.90;;;;;;6133346;23;20390;-72
2022/09/24 16:00:17;;;;;;;7.60;5.82;;;18.30;99.90;;;;;;6133856;23;20307;-76
2022/09/24 16:02:48;;;;;;;7.55;5.35;;;18.20;99.90;;;;;;6133035;23;20010;-75
2022/09/24 16:05:14;;;;;;;6.95;4.90;;;18.10;99.90;;;;;;6127873;23;22693;-74
2022/09/24 16:07:41;;;;;;;9.27;5.47;;;18.00;99.90;;;;;;6133910;23;20018;-74
2022/09/24 16:10:12;;;;;;;13.80;10.02;;;17.80;99.90;;;;;;6134662;23;20368;-73
2022/09/24 16:12:41;;;;;;;18.05;13.10;;;17.70;99.90;;;;;;6133073;23;20018;-75
2022/09/24 16:15:11;;;;;;;10.73;7.38;;;17.50;99.90;;;;;;6158054;23;20060;-73
2022/09/24 16:17:37;;;;;;;7.10;5.22;;;17.30;99.90;;;;;;6134290;23;20002;-74
2022/09/24 16:20:04;;;;;;;6.60;4.82;;;17.10;99.90;;;;;;6134944;23;20298;-74
2022/09/24 16:22:30;;;;;;;8.75;5.97;;;17.00;99.90;;;;;;6158445;23;20002;-76
2022/09/24 16:24:59;;;;;;;7.22;5.30;;;16.90;99.90;;;;;;6158028;23;20033;-73
2022/09/24 16:27:24;;;;;;;10.40;5.90;;;16.90;99.90;;;;;;6135071;23;20221;-74
2022/09/24 16:29:50;;;;;;;7.38;5.80;;;16.80;99.90;;;;;;6134566;23;19998;-73
2022/09/24 16:32:16;;;;;;;8.52;5.97;;;16.70;99.90;;;;;;6135290;23;20053;-73
2022/09/24 16:34:44;;;;;;;8.75;5.90;;;16.60;99.90;;;;;;6134704;23;20016;-74
2022/09/24 16:37:15;;;;;;;9.57;5.78;;;16.50;99.90;;;;;;6158210;23;20002;-74
2022/09/24 16:40:04;;;;;;;8.57;5.55;;;16.40;99.90;;;;;;6133136;23;20004;-76
2022/09/24 16:42:32;;;;;;;6.53;5.00;;;16.40;99.90;;;;;;6135111;23;20233;-74
2022/09/24 16:44:57;;;;;;;7.53;5.40;;;16.20;99.90;;;;;;6134293;23;20006;-78
2022/09/24 16:47:29;;;;;;;8.30;5.18;;;16.20;99.90;;;;;;6158261;23;20436;-76
2022/09/24 16:49:55;;;;;;;8.82;5.45;;;16.00;99.90;;;;;;6158243;23;20002;-78
2022/09/24 16:52:24;;;;;;;8.38;5.60;;;16.00;99.90;;;;;;6158078;23;20001;-75
2022/09/24 16:54:50;;;;;;;7.88;5.80;;;16.00;99.90;;;;;;6134319;23;20021;-75
2022/09/24 16:57:16;;;;;;;7.90;5.50;;;15.90;99.90;;;;;;6134965;23;20009;-77
2022/09/24 16:59:41;;;;;;;17.27;11.77;;;15.80;99.90;;;;;;6136292;23;20001;-76
2022/09/24 17:02:25;;;;;;;33.83;26.65;;;15.80;99.90;;;;;;6157975;23;20006;-79
2022/09/24 17:04:53;;;;;;;15.15;10.23;;;15.70;99.90;;;;;;6132793;23;20014;-76
2022/09/24 17:07:19;;;;;;;8.15;6.00;;;15.60;99.90;;;;;;6133496;23;20013;-77
2022/09/24 17:12:35;;;;;;;8.30;5.82;;;15.50;99.90;;;;;;6132749;23;20058;-77
2022/09/24 17:15:01;;;;;;;9.45;6.07;;;15.40;99.90;;;;;;6134129;23;20275;-77
2022/09/24 17:17:30;;;;;;;8.85;6.53;;;15.40;99.90;;;;;;6133201;23;20012;-75
2022/09/24 17:19:59;;;;;;;8.88;6.28;;;15.40;99.90;;;;;;6134352;23;20002;-77
2022/09/24 17:22:26;;;;;;;8.45;6.15;;;15.40;99.90;;;;;;6134365;23;20308;-75
2022/09/24 17:24:51;;;;;;;9.70;6.38;;;15.30;99.90;;;;;;6133599;23;20049;-76
2022/09/24 17:27:17;;;;;;;9.68;7.18;;;15.30;99.90;;;;;;6132751;23;20188;-75
2022/09/24 17:29:43;;;;;;;8.35;6.28;;;15.30;99.90;;;;;;6133455;23;19994;-75
2022/09/24 17:32:08;;;;;;;9.25;6.53;;;15.30;99.90;;;;;;6132739;23;20008;-76
2022/09/24 17:34:34;;;;;;;10.10;6.72;;;15.20;99.90;;;;;;6134005;23;20097;-76
2022/09/24 17:37:00;;;;;;;9.77;6.80;;;15.10;99.90;;;;;;6133694;23;20008;-77
2022/09/24 17:39:26;;;;;;;9.40;6.45;;;15.10;99.90;;;;;;6132621;23;20292;-79
2022/09/24 17:41:52;;;;;;;11.18;7.82;;;15.10;99.90;;;;;;6133605;23;20006;-75
2022/09/24 17:44:18;;;;;;;8.77;6.78;;;15.00;99.90;;;;;;6134075;23;20001;-77
2022/09/24 17:46:44;;;;;;;9.23;6.97;;;15.00;99.90;;;;;;6131981;23;20006;-79
2022/09/24 17:49:10;;;;;;;9.43;7.22;;;15.00;99.90;;;;;;6132339;23;20157;-75
2022/09/24 17:51:43;;;;;;;18.92;15.13;;;15.00;99.90;;;;;;6134007;23;20320;-75
2022/09/24 17:54:14;;;;;;;23.40;19.23;;;15.00;99.90;;;;;;6133147;23;20318;-76
2022/09/24 17:56:41;;;;;;;13.23;10.02;;;15.00;99.90;;;;;;6132805;23;20005;-78
2022/09/24 17:59:11;;;;;;;13.63;9.15;;;15.00;99.90;;;;;;6133140;23;20059;-76
2022/09/24 18:01:39;;;;;;;12.55;8.95;;;15.00;99.90;;;;;;6134403;23;20037;-74
2022/09/24 18:04:09;;;;;;;9.60;7.72;;;15.00;99.90;;;;;;6147842;23;20016;-76
2022/09/24 18:06:36;;;;;;;11.38;7.55;;;15.00;99.90;;;;;;6164268;23;20033;-75
2022/09/24 18:09:03;;;;;;;11.70;8.27;;;15.00;99.90;;;;;;6168536;23;20001;-75
2022/09/24 18:11:32;;;;;;;11.18;8.63;;;15.00;99.90;;;;;;6168754;23;20058;-75
2022/09/24 18:13:59;;;;;;;12.98;9.02;;;15.00;99.90;;;;;;6166914;23;19997;-75
2022/09/24 18:16:32;;;;;;;14.00;10.13;;;15.00;99.90;;;;;;6164858;23;20055;-77
2022/09/24 18:18:59;;;;;;;11.55;7.47;;;15.00;99.90;;;;;;6160730;23;20451;-75
2022/09/24 18:21:26;;;;;;;25.13;18.95;;;15.00;99.90;;;;;;6162800;23;20016;-75
2022/09/24 18:23:54;;;;;;;40.20;31.55;;;15.00;99.90;;;;;;6160892;23;20008;-75
2022/09/24 18:26:25;;;;;;;17.70;12.40;;;14.90;99.90;;;;;;6160927;23;20020;-75
2022/09/24 18:28:53;;;;;;;12.02;9.35;;;15.00;99.90;;;;;;6163053;23;20005;-75
2022/09/24 18:31:22;;;;;;;10.68;8.77;;;14.90;99.90;;;;;;6163709;23;20070;-76
2022/09/24 18:33:49;;;;;;;12.48;9.88;;;14.90;99.90;;;;;;6162021;23;20036;-76
2022/09/24 18:36:18;;;;;;;11.73;9.40;;;14.90;99.90;;;;;;6162428;23;20057;-77
2022/09/24 18:38:43;;;;;;;12.50;8.93;;;14.90;99.90;;;;;;6161517;23;20024;-77
2022/09/24 18:41:12;;;;;;;10.30;8.80;;;14.90;99.90;;;;;;6163090;23;20002;-76
2022/09/24 18:43:40;;;;;;;11.98;9.27;;;14.90;99.90;;;;;;6163273;23;20045;-75
2022/09/24 18:46:10;;;;;;;11.32;9.05;;;14.90;99.90;;;;;;6161905;23;20006;-75
2022/09/24 18:48:38;;;;;;;11.75;8.60;;;14.90;99.90;;;;;;6161947;23;20279;-76
2022/09/24 18:51:04;;;;;;;12.63;10.02;;;14.90;99.90;;;;;;6162360;23;20029;-77
2022/09/24 18:53:31;;;;;;;11.52;8.98;;;14.90;99.90;;;;;;6163111;23;20005;-74
2022/09/24 18:56:01;;;;;;;13.27;9.63;;;14.90;99.90;;;;;;6164358;23;19998;-75
2022/09/24 18:58:30;;;;;;;12.32;8.95;;;14.90;99.90;;;;;;6163837;23;20259;-75
2022/09/24 19:01:00;;;;;;;10.82;9.15;;;14.90;99.90;;;;;;6164721;23;20000;-74
2022/09/24 19:03:27;;;;;;;11.95;9.88;;;14.90;99.90;;;;;;6157572;23;20270;-76
2022/09/24 19:05:55;;;;;;;12.15;9.60;;;15.00;99.90;;;;;;6133760;23;20030;-78
2022/09/24 19:08:22;;;;;;;14.07;11.65;;;15.00;99.90;;;;;;6133866;23;20006;-73
2022/09/24 19:10:49;;;;;;;15.68;10.98;;;15.00;99.90;;;;;;6132740;23;19998;-74
2022/09/24 19:13:15;;;;;;;14.02;10.07;;;14.90;99.90;;;;;;6135566;23;20006;-76
2022/09/24 19:15:42;;;;;;;13.80;9.93;;;14.80;99.90;;;;;;6133694;23;20009;-73
2022/09/24 19:18:11;;;;;;;12.68;9.75;;;14.90;99.90;;;;;;6134941;23;20002;-75
2022/09/24 19:20:38;;;;;;;14.73;9.52;;;14.80;99.90;;;;;;6135788;23;19986;-74
2022/09/24 19:23:06;;;;;;;13.30;10.20;;;14.90;99.90;;;;;;6133463;23;19998;-75
2022/09/24 19:25:34;;;;;;;12.25;9.13;;;14.80;99.90;;;;;;6134017;23;20049;-73
2022/09/24 19:28:02;;;;;;;13.50;9.97;;;14.80;99.90;;;;;;6130712;23;20064;-75
2022/09/24 19:30:28;;;;;;;14.80;9.47;;;14.80;99.90;;;;;;6135471;23;19998;-73
2022/09/24 19:32:55;;;;;;;13.80;10.70;;;14.80;99.90;;;;;;6132472;23;20397;-73
2022/09/24 19:35:20;;;;;;;12.65;9.23;;;14.70;99.90;;;;;;6135002;23;19989;-72
2022/09/24 19:37:46;;;;;;;12.80;9.82;;;14.70;99.90;;;;;;6134965;23;20028;-75
2022/09/24 19:40:12;;;;;;;13.93;10.88;;;14.70;99.90;;;;;;6133082;23;20006;-74
2022/09/24 19:42:38;;;;;;;12.93;10.48;;;14.60;99.90;;;;;;6133942;23;20110;-73